Terminal Aerodrome Forecast
Issued by NWS Grand Forks, ND

Home | Current Version | Previous Version | Graphics & Text | Print | Product List | Glossary On
Versions: 1 2 3 4 5 6 7 8 9 10 11 12 13 14 15
000
FTUS43 KFGF 181700
TAFFAR
TAF
KFAR 181723Z 1818/1918 16011KT P6SM SCT015
     FM181900 17017G25KT P6SM SCT030
     FM190300 17015KT P6SM BKN120
     FM191500 18010KT P6SM BKN050=

USA.gov is the U.S. government's official web portal to all federal, state and local government web resources and services.